Time;durP1;ratioP1;P1;durP2;ratioP2;P2;SDS_P1;SDS_P2;PMS_P1;PMS_P2;Temp;Humidity;BMP_temperature;BMP_pressure;BME280_temperature;BME280_humidity;BME280_pressure;Samples;Min_cycle;Max_cycle;Signal;HPM_P1;HPM_P2
2022/04/23 00:01:42;;;;;;;15.77;4.28;;;;;;;12.44;74.28;100047.22;7385788;19;20017;-65
2022/04/23 00:04:12;;;;;;;15.95;4.57;;;;;;;12.44;74.85;100034.03;7383380;19;20011;-66
2022/04/23 00:06:40;;;;;;;19.67;4.90;;;;;;;12.47;75.21;100038.09;7385936;19;20011;-65
2022/04/23 00:09:07;;;;;;;16.05;4.22;;;;;;;12.49;74.85;100031.66;7385163;19;20209;-65
2022/04/23 00:11:34;;;;;;;18.73;4.38;;;;;;;12.49;74.85;100021.09;7385671;19;20010;-64
2022/04/23 00:14:04;;;;;;;19.17;5.55;;;;;;;12.50;74.84;100009.50;7389537;19;20643;-67
2022/04/23 00:16:31;;;;;;;15.30;5.68;;;;;;;12.54;74.68;100012.63;7388873;19;20019;-66
2022/04/23 00:18:58;;;;;;;17.98;5.32;;;;;;;12.55;75.06;100012.41;7383946;19;20042;-63
2022/04/23 00:21:25;;;;;;;15.07;4.72;;;;;;;12.57;74.99;100012.22;7388463;19;20484;-66
2022/04/23 00:23:52;;;;;;;18.08;4.70;;;;;;;12.58;74.80;100006.78;7385573;19;20007;-63
2022/04/23 00:26:18;;;;;;;15.95;4.70;;;;;;;12.59;75.00;100015.50;7389166;19;20073;-64
2022/04/23 00:28:45;;;;;;;17.30;4.97;;;;;;;12.58;74.72;100011.22;7386264;19;20109;-68
2022/04/23 00:31:14;;;;;;;17.90;5.57;;;;;;;12.60;75.37;100014.50;7387509;19;20094;-67
2022/04/23 00:33:41;;;;;;;17.42;4.75;;;;;;;12.55;75.28;100001.84;7384893;19;20465;-66
2022/04/23 00:36:10;;;;;;;16.15;4.65;;;;;;;12.59;75.30;100004.97;7384789;19;20030;-67
2022/04/23 00:38:42;;;;;;;19.75;4.03;;;;;;;12.57;75.43;99996.41;7388693;19;20015;-65
2022/04/23 00:41:43;;;;;;;16.10;5.45;;;;;;;12.54;75.23;99996.78;7385582;19;20469;-65
2022/04/23 00:44:00;;;;;;;19.45;5.50;;;;;;;12.53;75.87;99997.78;7387659;19;20018;-64
2022/04/23 00:46:30;;;;;;;16.90;5.05;;;;;;;12.52;75.84;99996.97;7385220;19;20014;-64
2022/04/23 00:49:00;;;;;;;17.77;4.70;;;;;;;12.52;75.62;99996.13;7387956;19;20003;-66
2022/04/23 00:51:28;;;;;;;13.23;4.15;;;;;;;12.53;75.82;100003.06;7383860;19;20470;-64
2022/04/23 00:53:57;;;;;;;16.42;4.63;;;;;;;12.52;75.81;99991.69;7383172;19;20014;-64
2022/04/23 00:56:23;;;;;;;18.92;5.28;;;;;;;12.57;75.95;99993.75;7384945;19;20010;-64
2022/04/23 00:58:52;;;;;;;15.90;5.00;;;;;;;12.63;75.43;99987.75;7388373;19;20014;-63
2022/04/23 01:01:23;;;;;;;18.92;5.07;;;;;;;12.63;75.61;99993.03;7384201;19;20021;-66
2022/04/23 01:03:52;;;;;;;15.75;5.15;;;;;;;12.62;75.80;99981.66;7387100;19;20018;-66
2022/04/23 01:06:23;;;;;;;18.45;5.40;;;;;;;12.60;75.90;99991.56;7388106;19;20746;-67
2022/04/23 01:08:58;;;;;;;21.80;5.55;;;;;;;12.57;75.95;99984.03;7387075;19;20042;-67
2022/04/23 01:11:24;;;;;;;19.08;4.97;;;;;;;12.56;76.09;99978.91;7382367;19;20100;-67
2022/04/23 01:13:51;;;;;;;19.88;4.95;;;;;;;12.57;75.82;99972.66;7385600;19;20105;-66
2022/04/23 01:16:19;;;;;;;19.85;5.20;;;;;;;12.58;75.97;99976.94;7391060;19;20712;-66
2022/04/23 01:18:46;;;;;;;14.80;4.53;;;;;;;12.59;75.84;99974.13;7391782;19;20018;-65
2022/04/23 01:21:13;;;;;;;15.95;5.60;;;;;;;12.59;76.54;99979.38;7392343;19;20030;-67
2022/04/23 01:23:42;;;;;;;14.82;4.78;;;;;;;12.62;76.17;99970.25;7392292;19;20115;-66
2022/04/23 01:26:14;;;;;;;17.17;5.22;;;;;;;12.65;75.73;99965.41;7355484;19;20010;-67
2022/04/23 01:28:59;;;;;;;23.83;5.22;;;;;;;12.66;75.58;99958.31;7387212;19;19998;-65
2022/04/23 01:31:26;;;;;;;15.45;5.82;;;;;;;12.65;75.76;99956.69;7394167;19;20022;-65
2022/04/23 01:33:54;;;;;;;16.83;5.07;;;;;;;12.62;75.57;99960.53;7392191;19;20069;-65
2022/04/23 01:36:21;;;;;;;20.70;5.30;;;;;;;12.63;76.31;99951.63;7395129;19;20002;-64
2022/04/23 01:38:48;;;;;;;15.55;4.82;;;;;;;12.62;76.12;99957.06;7393347;19;20010;-64
2022/04/23 01:41:15;;;;;;;12.32;4.47;;;;;;;12.60;76.20;99953.78;7388210;19;20513;-65
2022/04/23 01:43:42;;;;;;;21.65;5.18;;;;;;;12.60;76.08;99953.78;7394515;19;20384;-64
2022/04/23 01:46:09;;;;;;;21.02;5.50;;;;;;;12.61;76.16;99953.63;7391827;19;20011;-67
2022/04/23 01:48:36;;;;;;;16.98;4.65;;;;;;;12.58;76.42;99955.81;7392769;19;20017;-64
2022/04/23 01:51:03;;;;;;;13.73;4.43;;;;;;;12.55;76.47;99950.91;7391129;19;20166;-65
2022/04/23 01:53:30;;;;;;;21.85;4.95;;;;;;;12.53;76.65;99958.19;7387167;19;20011;-64
2022/04/23 01:55:57;;;;;;;21.80;5.70;;;;;;;12.52;76.61;99949.47;7391409;19;20024;-66
2022/04/23 01:58:24;;;;;;;14.73;4.90;;;;;;;12.50;76.75;99953.28;7390176;19;20006;-65
2022/04/23 02:00:52;;;;;;;17.27;4.95;;;;;;;12.50;77.01;99950.63;7389746;19;20306;-66
2022/04/23 02:03:19;;;;;;;18.95;5.28;;;;;;;12.46;76.98;99949.38;7392770;19;20070;-64
2022/04/23 02:05:46;;;;;;;16.08;4.88;;;;;;;12.44;77.29;99939.03;7394895;19;20094;-66
2022/04/23 02:08:17;;;;;;;17.85;4.95;;;;;;;12.43;77.29;99940.84;7391961;19;20711;-65
2022/04/23 02:10:45;;;;;;;15.48;4.68;;;;;;;12.40;77.46;99940.38;7389177;19;20021;-64
2022/04/23 02:13:12;;;;;;;14.55;4.45;;;;;;;12.39;77.64;99939.56;7387759;19;20021;-65
2022/04/23 02:15:40;;;;;;;20.13;5.50;;;;;;;12.41;78.05;99949.94;7369121;19;20018;-64
2022/04/23 02:18:08;;;;;;;19.75;4.95;;;;;;;12.41;78.04;99937.56;7383769;19;20078;-65
2022/04/23 02:20:35;;;;;;;16.98;4.97;;;;;;;12.43;77.90;99940.03;7390903;19;20097;-66
2022/04/23 02:23:06;;;;;;;14.25;4.95;;;;;;;12.46;77.69;99936.19;7388094;19;20011;-64
2022/04/23 02:25:36;;;;;;;19.98;5.50;;;;;;;12.47;77.68;99935.19;7368380;19;20033;-67
2022/04/23 02:28:04;;;;;;;25.88;9.88;;;;;;;12.51;77.94;99928.53;7372446;19;20055;-66
2022/04/23 02:30:34;;;;;;;20.23;5.50;;;;;;;12.59;77.71;99931.06;7371450;19;20017;-64
2022/04/23 02:33:01;;;;;;;15.05;5.88;;;;;;;12.61;77.28;99921.13;7371939;19;20025;-66
2022/04/23 02:35:28;;;;;;;16.80;5.38;;;;;;;12.64;76.98;99924.22;7366376;19;20850;-65
2022/04/23 02:37:56;;;;;;;17.13;5.28;;;;;;;12.63;77.27;99917.31;7366547;19;20103;-64
2022/04/23 02:40:24;;;;;;;23.73;5.30;;;;;;;12.64;77.17;99920.75;7373059;19;20013;-64
2022/04/23 02:42:51;;;;;;;17.23;5.18;;;;;;;12.63;77.36;99919.13;7368442;19;20030;-66
2022/04/23 02:45:20;;;;;;;16.13;5.40;;;;;;;12.56;77.55;99905.84;7364422;19;20078;-64
2022/04/23 02:47:47;;;;;;;18.63;5.40;;;;;;;12.54;77.97;99896.50;7371561;19;20002;-65
2022/04/23 02:50:22;;;;;;;22.45;6.53;;;;;;;12.52;77.85;99901.97;7366836;19;20007;-66
2022/04/23 02:52:49;;;;;;;19.60;6.20;;;;;;;12.53;78.14;99910.69;7365732;19;20009;-65
2022/04/23 02:55:15;;;;;;;19.20;6.28;;;;;;;12.54;78.19;99899.97;7376384;19;20015;-66
2022/04/23 02:57:42;;;;;;;18.58;6.75;;;;;;;12.56;78.50;99899.75;7378982;19;20109;-66
2022/04/23 03:00:11;;;;;;;18.45;5.97;;;;;;;12.55;78.39;99901.56;7367909;19;20006;-67
2022/04/23 03:02:39;;;;;;;16.67;5.68;;;;;;;12.56;77.98;99892.66;7380677;19;20018;-68
2022/04/23 03:05:15;;;;;;;21.20;5.80;;;;;;;12.55;78.24;99887.56;7366688;19;20014;-66
2022/04/23 03:07:45;;;;;;;17.98;5.95;;;;;;;12.57;78.65;99885.56;7366720;19;20018;-67
2022/04/23 03:10:15;;;;;;;21.27;8.10;;;;;;;12.57;78.58;99889.03;7366127;19;20022;-65
2022/04/23 03:12:43;;;;;;;23.02;7.13;;;;;;;12.60;79.10;99882.53;7374896;19;20017;-65
2022/04/23 03:15:18;;;;;;;21.60;7.25;;;;;;;12.64;78.59;99874.06;7372271;19;20015;-65
2022/04/23 03:17:46;;;;;;;20.92;6.47;;;;;;;12.66;78.42;99879.16;7362076;19;20006;-66
2022/04/23 03:20:14;;;;;;;20.55;6.60;;;;;;;12.64;78.42;99868.81;7384025;19;20066;-63
2022/04/23 03:22:42;;;;;;;19.10;6.88;;;;;;;12.63;78.52;99874.25;7365273;19;20418;-66
2022/04/23 03:25:10;;;;;;;20.08;7.45;;;;;;;12.70;78.44;99868.00;7366957;19;20002;-67
2022/04/23 03:27:37;;;;;;;27.52;7.78;;;;;;;12.69;78.11;99876.97;7370870;19;20010;-64
2022/04/23 03:30:06;;;;;;;19.63;6.65;;;;;;;12.68;78.71;99877.16;7369123;19;20025;-66
2022/04/23 03:32:34;;;;;;;20.77;7.25;;;;;;;12.71;78.31;99877.56;7369284;19;20010;-63
2022/04/23 03:35:01;;;;;;;19.42;7.38;;;;;;;12.68;78.72;99867.41;7367642;19;20416;-66
2022/04/23 03:37:28;;;;;;;20.08;6.82;;;;;;;12.66;78.83;99871.22;7364419;19;20015;-67
2022/04/23 03:39:55;;;;;;;22.05;8.43;;;;;;;12.69;79.24;99866.41;7364356;19;20018;-64
2022/04/23 03:42:22;;;;;;;22.95;8.23;;;;;;;12.63;79.14;99872.44;7365572;19;20432;-65
2022/04/23 03:44:49;;;;;;;18.15;6.68;;;;;;;12.64;79.31;99867.97;7366118;19;20020;-64
2022/04/23 03:47:16;;;;;;;16.90;6.65;;;;;;;12.65;79.45;99859.03;7365832;19;20153;-63
2022/04/23 03:49:46;;;;;;;21.52;7.28;;;;;;;12.67;79.11;99864.94;7368381;19;19999;-63
2022/04/23 03:52:13;;;;;;;21.50;7.40;;;;;;;12.70;79.19;99848.72;7366362;19;20013;-64
2022/04/23 03:54:40;;;;;;;17.60;7.97;;;;;;;12.72;79.05;99844.91;7366126;19;20561;-65
2022/04/23 03:57:07;;;;;;;24.83;7.95;;;;;;;12.74;78.90;99850.81;7366714;19;20006;-66
2022/04/23 03:59:37;;;;;;;20.02;8.05;;;;;;;12.75;78.80;99844.50;7362923;19;20361;-66
2022/04/23 04:02:05;;;;;;;27.30;7.68;;;;;;;12.73;78.86;99851.81;7366498;19;20305;-64
2022/04/23 04:04:33;;;;;;;23.30;8.43;;;;;;;12.75;78.61;99851.59;7366068;19;20038;-64
2022/04/23 04:07:01;;;;;;;19.90;7.93;;;;;;;12.76;78.83;99846.16;7367498;19;21560;-66
2022/04/23 04:09:28;;;;;;;19.23;8.52;;;;;;;12.76;78.91;99845.31;7366873;19;20018;-63
2022/04/23 04:12:01;;;;;;;20.92;8.18;;;;;;;12.77;78.82;99850.41;7365532;19;20412;-66
2022/04/23 04:14:30;;;;;;;;;;;;;;;12.85;78.44;99852.09;7367354;19;20028;-64
2022/04/23 04:17:02;;;;;;;19.25;7.10;;;;;;;12.83;78.71;99847.03;7338563;19;19935;-63
2022/04/23 04:19:35;;;;;;;21.10;7.65;;;;;;;12.83;78.25;99844.38;7370956;19;20110;-64
2022/04/23 04:22:03;;;;;;;21.25;8.20;;;;;;;12.83;78.83;99841.75;7366021;19;20014;-66
2022/04/23 04:24:31;;;;;;;18.83;7.85;;;;;;;12.85;78.42;99844.16;7370874;19;20006;-66
2022/04/23 04:27:00;;;;;;;20.50;9.40;;;;;;;12.85;78.29;99846.81;7363020;19;20243;-67
2022/04/23 04:29:28;;;;;;;23.35;8.60;;;;;;;12.88;78.09;99841.16;7360634;19;20021;-65
2022/04/23 04:31:55;;;;;;;22.58;8.40;;;;;;;12.88;77.91;99840.34;7362679;19;20335;-67
2022/04/23 04:34:32;;;;;;;21.23;9.07;;;;;;;12.92;77.83;99842.41;7365053;19;20321;-66
2022/04/23 04:37:10;;;;;;;20.77;9.05;;;;;;;12.94;78.12;99836.94;7362637;19;20086;-67
2022/04/23 04:39:40;;;;;;;20.58;8.35;;;;;;;12.95;77.95;99844.69;7366792;19;20332;-65
2022/04/23 04:42:09;;;;;;;22.52;9.25;;;;;;;12.98;77.52;99846.91;7371288;19;20022;-66
2022/04/23 04:44:37;;;;;;;22.13;8.45;;;;;;;13.01;77.41;99846.53;7363285;19;20127;-66
2022/04/23 04:47:05;;;;;;;22.52;9.05;;;;;;;12.99;77.34;99851.19;7365514;19;20018;-66
2022/04/23 04:49:32;;;;;;;24.48;10.13;;;;;;;13.00;78.08;99852.84;7366818;19;20011;-64
2022/04/23 04:51:59;;;;;;;16.17;8.93;;;;;;;13.01;77.35;99848.34;7365118;19;20515;-66
2022/04/23 04:54:27;;;;;;;19.05;7.90;;;;;;;13.04;77.22;99848.81;7364633;19;20010;-64
2022/04/23 04:56:54;;;;;;;14.13;7.00;;;;;;;13.05;77.00;99852.25;7364454;19;20007;-64
2022/04/23 04:59:21;;;;;;;24.80;9.30;;;;;;;13.06;76.97;99852.03;7361163;19;20013;-66
2022/04/23 05:01:50;;;;;;;19.33;7.68;;;;;;;13.04;76.83;99855.91;7365597;19;20448;-64
2022/04/23 05:04:18;;;;;;;16.35;7.60;;;;;;;13.07;77.55;99852.88;7366076;19;20323;-64
2022/04/23 05:06:45;;;;;;;22.05;8.10;;;;;;;13.06;76.90;99857.31;7367175;19;20011;-66
2022/04/23 05:09:12;;;;;;;17.90;8.15;;;;;;;13.06;76.67;99852.03;7362801;19;20020;-65
2022/04/23 05:11:39;;;;;;;13.77;7.03;;;;;;;13.09;76.64;99850.84;7365818;19;20356;-64
2022/04/23 05:14:06;;;;;;;18.65;7.20;;;;;;;13.01;76.69;99857.09;7363014;19;20014;-65
2022/04/23 05:16:33;;;;;;;13.18;6.50;;;;;;;13.02;76.81;99848.16;7335269;19;20352;-66
2022/04/23 05:19:01;;;;;;;18.23;7.03;;;;;;;13.05;76.86;99854.91;7361466;19;20596;-63
2022/04/23 05:21:28;;;;;;;16.63;7.40;;;;;;;13.05;76.97;99849.63;7362741;19;20011;-64
2022/04/23 05:23:55;;;;;;;19.77;7.07;;;;;;;13.03;76.49;99844.53;7365294;19;20002;-65
2022/04/23 05:26:22;;;;;;;18.05;6.95;;;;;;;13.04;76.80;99851.44;7370107;19;20532;-66
2022/04/23 05:28:49;;;;;;;18.08;6.55;;;;;;;13.02;76.80;99844.69;7362240;19;20027;-66
2022/04/23 05:31:16;;;;;;;15.32;6.35;;;;;;;13.02;76.88;99848.16;7363330;19;20015;-64
2022/04/23 05:33:43;;;;;;;17.40;6.75;;;;;;;13.01;77.14;99853.63;7362561;19;20006;-65
2022/04/23 05:36:10;;;;;;;14.70;6.68;;;;;;;13.02;76.70;99849.97;7360733;19;20070;-65
2022/04/23 05:38:37;;;;;;;11.70;6.55;;;;;;;13.00;76.60;99849.38;7362466;19;20014;-65
2022/04/23 05:41:10;;;;;;;17.52;6.38;;;;;;;13.02;76.36;99848.16;7362733;19;20034;-67
2022/04/23 05:43:38;;;;;;;14.68;7.03;;;;;;;12.99;76.83;99851.19;7364642;19;20650;-67
2022/04/23 05:46:05;;;;;;;18.38;7.57;;;;;;;13.01;76.75;99851.81;7365306;19;20018;-66
2022/04/23 05:48:32;;;;;;;22.33;7.25;;;;;;;13.04;76.82;99851.44;7368229;19;20034;-65
2022/04/23 05:50:59;;;;;;;16.73;6.88;;;;;;;13.12;75.83;99850.50;7364893;19;20013;-65
2022/04/23 05:53:25;;;;;;;16.00;6.85;;;;;;;13.15;75.84;99850.94;7362091;19;20022;-66
2022/04/23 05:55:56;;;;;;;15.30;6.93;;;;;;;13.17;75.64;99861.28;7367794;19;20017;-64
2022/04/23 05:58:23;;;;;;;16.45;5.75;;;;;;;13.17;75.59;99859.47;7375644;19;20846;-63
2022/04/23 06:00:51;;;;;;;15.93;6.90;;;;;;;13.16;76.19;99851.72;7363864;19;20542;-65
2022/04/23 06:03:18;;;;;;;13.52;6.30;;;;;;;13.23;75.91;99855.25;7369760;19;20357;-66
2022/04/23 06:05:45;;;;;;;13.73;5.88;;;;;;;13.27;75.24;99867.03;7371630;19;20002;-65
2022/04/23 06:08:12;;;;;;;12.68;5.50;;;;;;;13.34;74.89;99853.88;7374843;19;20091;-66
2022/04/23 06:10:43;;;;;;;12.07;6.22;;;;;;;13.35;74.31;99861.63;7369680;19;20471;-65
2022/04/23 06:13:10;;;;;;;16.20;5.93;;;;;;;13.35;73.85;99869.56;7370191;19;21062;-66
2022/04/23 06:15:37;;;;;;;12.90;6.45;;;;;;;13.36;73.71;99862.44;7381186;19;20018;-63
2022/04/23 06:18:05;;;;;;;13.43;5.63;;;;;;;13.40;74.11;99864.50;7369394;19;21836;-65
2022/04/23 06:20:32;;;;;;;16.73;5.65;;;;;;;13.39;73.94;99862.88;7368769;19;20006;-65
2022/04/23 06:22:59;;;;;;;12.80;6.38;;;;;;;13.43;73.69;99864.09;7370556;19;20010;-64
2022/04/23 06:25:26;;;;;;;11.77;6.00;;;;;;;13.45;73.52;99864.72;7370641;19;20010;-65
2022/04/23 06:27:53;;;;;;;15.85;6.85;;;;;;;13.43;73.73;99865.91;7369093;19;20137;-66
2022/04/23 06:30:20;;;;;;;16.52;7.60;;;;;;;13.39;74.20;99862.03;7367451;19;20360;-64
2022/04/23 06:32:47;;;;;;;12.82;6.10;;;;;;;13.43;73.82;99863.28;7370565;19;20335;-66
2022/04/23 06:35:14;;;;;;;12.48;6.35;;;;;;;13.47;72.83;99865.34;7369249;19;20010;-63
2022/04/23 06:37:42;;;;;;;12.73;5.93;;;;;;;13.52;72.86;99872.66;7369163;19;20019;-64
2022/04/23 06:40:13;;;;;;;18.08;6.70;;;;;;;13.48;73.11;99869.59;7366220;19;20023;-63
2022/04/23 06:42:41;;;;;;;17.88;6.85;;;;;;;13.47;73.29;99877.72;7368483;19;20413;-63
2022/04/23 06:45:09;;;;;;;12.00;6.35;;;;;;;13.43;73.14;99868.56;7371268;19;20028;-63
2022/04/23 06:47:36;;;;;;;13.75;6.80;;;;;;;13.45;73.28;99874.47;7364719;19;20090;-63
2022/04/23 06:50:06;;;;;;;11.07;6.50;;;;;;;13.42;73.19;99878.31;7368167;19;20025;-65
2022/04/23 06:52:33;;;;;;;13.98;6.68;;;;;;;13.36;73.14;99880.94;7366920;19;20047;-65
2022/04/23 06:55:00;;;;;;;14.00;6.05;;;;;;;13.38;73.42;99877.06;7369674;19;20379;-63
2022/04/23 06:57:27;;;;;;;14.50;7.25;;;;;;;13.43;73.95;99879.13;7368128;19;20626;-65
2022/04/23 06:59:54;;;;;;;12.05;6.55;;;;;;;13.43;73.95;99879.94;7368471;19;20030;-65
2022/04/23 07:02:21;;;;;;;13.20;6.47;;;;;;;13.38;73.63;99877.06;7368401;19;20022;-63
2022/04/23 07:04:49;;;;;;;12.85;5.93;;;;;;;13.44;73.62;99881.59;7368982;19;20018;-66
2022/04/23 07:07:15;;;;;;;15.63;6.40;;;;;;;13.46;73.68;99874.25;7374446;19;20017;-65
2022/04/23 07:09:42;;;;;;;15.45;6.18;;;;;;;13.47;73.32;99875.91;7381159;19;20360;-65
2022/04/23 07:12:10;;;;;;;13.57;6.97;;;;;;;13.46;73.29;99866.34;7374068;19;20011;-63
2022/04/23 07:14:39;;;;;;;14.70;6.43;;;;;;;13.50;73.32;99877.34;7378279;19;20014;-66
2022/04/23 07:17:07;;;;;;;15.98;6.57;;;;;;;13.50;73.27;99878.19;7379222;19;20332;-64
2022/04/23 07:19:39;;;;;;;14.50;6.38;;;;;;;13.46;73.46;99871.63;7382984;19;20010;-65
2022/04/23 07:22:08;;;;;;;12.75;6.80;;;;;;;13.50;73.54;99874.72;7381190;19;20105;-64
2022/04/23 07:24:37;;;;;;;17.63;7.50;;;;;;;13.50;73.56;99864.97;7380881;19;20050;-66
2022/04/23 07:27:05;;;;;;;17.08;6.60;;;;;;;13.54;73.38;99873.31;7386365;19;20018;-66
2022/04/23 07:29:33;;;;;;;16.05;7.07;;;;;;;13.51;73.43;99868.41;7384180;19;20034;-64
2022/04/23 07:32:01;;;;;;;13.45;6.35;;;;;;;13.54;73.67;99870.66;7376132;19;20018;-65
2022/04/23 07:37:29;;;;;;;10.20;6.20;;;;;;;13.56;73.25;99866.78;7377955;19;20059;-65
2022/04/23 07:39:57;;;;;;;11.88;6.03;;;;;;;13.60;73.77;99854.84;7376750;19;20377;-66
2022/04/23 07:42:26;;;;;;;13.93;6.72;;;;;;;13.61;73.56;99866.25;7366912;19;20007;-65
2022/04/23 07:44:53;;;;;;;13.35;6.43;;;;;;;13.67;73.54;99863.59;7381317;19;20444;-65
2022/04/23 07:47:20;;;;;;;14.98;8.23;;;;;;;13.68;73.28;99859.13;7370824;19;20010;-63
2022/04/23 07:49:47;;;;;;;13.65;6.90;;;;;;;13.72;73.29;99857.72;7371573;19;20304;-63
2022/04/23 07:52:15;;;;;;;14.20;7.10;;;;;;;13.95;73.33;99858.22;7381110;19;20033;-64
2022/04/23 07:54:43;;;;;;;14.18;6.90;;;;;;;14.34;71.64;99854.84;7381050;19;20110;-66
2022/04/23 07:57:12;;;;;;;14.70;7.40;;;;;;;14.69;70.18;99854.72;7368663;19;20052;-63
2022/04/23 07:59:43;;;;;;;14.05;6.90;;;;;;;14.82;69.33;99860.03;7374128;19;20403;-66
2022/04/23 08:02:10;;;;;;;11.85;7.35;;;;;;;14.80;69.36;99854.91;7366822;19;20017;-65
2022/04/23 08:04:38;;;;;;;14.55;7.28;;;;;;;14.74;69.16;99862.84;7365541;19;20254;-63
2022/04/23 08:07:06;;;;;;;14.40;7.22;;;;;;;14.64;69.79;99865.09;7365464;19;20014;-66
2022/04/23 08:09:37;;;;;;;16.25;8.43;;;;;;;14.31;70.61;99855.28;7369178;19;20002;-65
2022/04/23 08:12:06;;;;;;;12.38;7.60;;;;;;;14.40;71.10;99859.38;7365853;19;20048;-65
2022/04/23 08:14:34;;;;;;;16.20;7.47;;;;;;;14.46;70.86;99860.41;7365848;19;20127;-65
2022/04/23 08:17:01;;;;;;;18.30;8.45;;;;;;;14.59;70.38;99859.59;7362670;19;20010;-67
2022/04/23 08:19:29;;;;;;;20.55;8.57;;;;;;;14.55;70.32;99864.50;7364814;19;20050;-65
2022/04/23 08:21:56;;;;;;;15.23;8.30;;;;;;;14.48;70.97;99868.94;7363621;19;20195;-66
2022/04/23 08:24:24;;;;;;;14.18;8.38;;;;;;;14.57;70.75;99861.66;7362890;19;20423;-64
2022/04/23 08:26:51;;;;;;;16.33;8.77;;;;;;;14.59;70.02;99862.25;7371296;19;20014;-66
2022/04/23 08:32:05;;;;;;;18.23;9.07;;;;;;;14.59;70.18;99865.69;7372276;19;20011;-65
2022/04/23 08:34:32;;;;;;;17.92;9.07;;;;;;;14.63;70.27;99872.22;7365183;19;20452;-66
2022/04/23 08:36:59;;;;;;;22.58;10.07;;;;;;;14.68;70.36;99872.44;7365893;19;20014;-65
2022/04/23 08:39:26;;;;;;;17.85;11.10;;;;;;;14.79;70.06;99866.53;7362296;19;20014;-65
2022/04/23 08:41:53;;;;;;;13.13;9.00;;;;;;;14.86;69.87;99870.00;7366313;19;20034;-65
2022/04/23 08:44:23;;;;;;;19.58;9.43;;;;;;;14.87;69.61;99869.00;7365921;19;20483;-64
2022/04/23 08:46:54;;;;;;;22.30;9.90;;;;;;;14.96;69.75;99866.94;7366527;19;20006;-67
2022/04/23 08:49:33;;;;;;;22.02;10.75;;;;;;;14.97;69.45;99866.75;7364976;19;20010;-66
2022/04/23 08:52:32;;;;;;;20.83;12.07;;;;;;;14.95;69.89;99868.78;7365899;19;20025;-64
2022/04/23 08:55:00;;;;;;;19.02;10.07;;;;;;;14.97;69.24;99871.22;7363852;19;20448;-65
2022/04/23 08:57:28;;;;;;;18.83;10.30;;;;;;;15.03;68.98;99880.19;7362676;19;20010;-65
2022/04/23 08:59:56;;;;;;;18.77;10.88;;;;;;;15.07;68.52;99865.50;7364344;19;20025;-66
2022/04/23 09:02:26;;;;;;;20.08;11.45;;;;;;;15.09;68.28;99866.09;7366199;19;20003;-67
2022/04/23 09:04:54;;;;;;;18.65;12.23;;;;;;;15.10;68.49;99883.63;7366949;19;20011;-68
2022/04/23 09:07:22;;;;;;;17.95;12.02;;;;;;;15.04;68.67;99887.09;7370563;19;20458;-65
2022/04/23 09:09:51;;;;;;;19.25;11.98;;;;;;;15.14;67.75;99888.31;7363218;19;20397;-65
2022/04/23 09:12:24;;;;;;;22.25;11.70;;;;;;;15.24;67.33;99885.25;7366307;19;20037;-63
2022/04/23 09:14:52;;;;;;;23.10;11.80;;;;;;;15.41;67.14;99889.91;7360729;19;20444;-65
2022/04/23 09:25:50;;;;;;;22.13;12.10;;;;;;;15.94;65.24;99889.78;7363223;19;21386;-64
2022/04/23 09:28:20;;;;;;;22.70;12.45;;;;;;;15.96;65.17;99887.72;7366246;19;20101;-66
2022/04/23 09:30:54;;;;;;;22.95;12.32;;;;;;;15.94;65.27;99895.09;7362664;19;20040;-68
2022/04/23 09:33:30;;;;;;;18.83;11.70;;;;;;;15.91;64.75;99899.97;7364356;19;20384;-65
2022/04/23 09:36:06;;;;;;;18.70;11.70;;;;;;;15.83;65.19;99885.13;7364762;19;21367;-65
2022/04/23 09:38:34;;;;;;;18.98;12.23;;;;;;;15.80;65.81;99904.09;7369533;19;20352;-66
2022/04/23 09:41:21;;;;;;;20.20;12.40;;;;;;;15.83;65.16;99899.22;7369916;19;20330;-67
2022/04/23 09:44:06;;;;;;;22.35;12.43;;;;;;;15.77;65.30;99894.72;7368842;19;20006;-67
2022/04/23 09:46:49;;;;;;;21.98;12.63;;;;;;;15.77;65.11;99894.72;7372785;19;20312;-64
2022/04/23 09:49:34;;;;;;;19.77;11.73;;;;;;;15.79;64.99;99889.22;7366611;19;20767;-66
2022/04/23 09:52:07;;;;;;;22.20;13.18;;;;;;;15.87;64.74;99882.84;7370028;19;20015;-64
2022/04/23 09:54:36;;;;;;;21.95;12.45;;;;;;;15.90;64.33;99885.09;7375696;19;20015;-64
2022/04/23 09:57:05;;;;;;;24.50;14.30;;;;;;;15.71;64.73;99889.44;7370375;19;20017;-66
2022/04/23 09:59:32;;;;;;;18.17;11.60;;;;;;;15.69;65.38;99875.59;7367647;19;20018;-65
2022/04/23 10:02:02;;;;;;;20.23;12.18;;;;;;;15.67;64.72;99891.72;7366331;19;20015;-65
2022/04/23 10:04:31;;;;;;;24.58;12.95;;;;;;;15.69;63.92;99883.56;7369858;19;20010;-65
2022/04/23 10:07:01;;;;;;;20.45;11.95;;;;;;;15.74;63.75;99881.09;7367915;19;20037;-66
2022/04/23 10:09:36;;;;;;;22.13;11.93;;;;;;;15.75;62.71;99895.94;7368984;19;20050;-66
2022/04/23 10:12:07;;;;;;;21.90;12.57;;;;;;;15.70;62.99;99903.72;7370671;19;20010;-66
2022/04/23 10:14:46;;;;;;;22.63;12.68;;;;;;;15.68;62.81;99885.38;7369211;19;20003;-64
2022/04/23 10:17:18;;;;;;;21.52;12.98;;;;;;;15.68;63.47;99889.88;7368435;19;20583;-66
2022/04/23 10:19:45;;;;;;;22.63;13.60;;;;;;;15.71;63.34;99886.78;7367444;19;20010;-64
2022/04/23 10:22:31;;;;;;;26.48;14.77;;;;;;;15.78;63.47;99888.41;7376408;19;20306;-67
2022/04/23 10:25:10;;;;;;;22.38;12.63;;;;;;;15.81;63.35;99889.81;7370662;19;20039;-66
2022/04/23 10:27:39;;;;;;;20.13;12.18;;;;;;;15.88;62.47;99884.50;7379084;19;20317;-67
2022/04/23 10:30:07;;;;;;;22.10;12.77;;;;;;;15.97;62.64;99886.69;7368804;19;21664;-66
2022/04/23 10:32:41;;;;;;;20.25;13.50;;;;;;;15.97;62.57;99881.38;7366706;19;20011;-65
2022/04/23 10:35:17;;;;;;;22.52;13.23;;;;;;;15.99;62.91;99873.22;7368320;19;20091;-66
2022/04/23 10:37:49;;;;;;;22.75;13.68;;;;;;;16.04;62.61;99882.19;7367134;19;20018;-66
2022/04/23 10:40:18;;;;;;;22.65;12.50;;;;;;;16.15;61.06;99875.38;7367695;19;20050;-65
2022/04/23 10:43:04;;;;;;;20.52;12.98;;;;;;;16.15;61.88;99878.03;7366453;19;20010;-68
2022/04/23 10:45:33;;;;;;;25.38;13.27;;;;;;;16.22;61.29;99876.97;7370690;19;20014;-66
2022/04/23 10:48:27;;;;;;;19.77;11.63;;;;;;;16.26;59.55;99880.81;7366495;19;20015;-67
2022/04/23 10:51:21;;;;;;;19.35;11.65;;;;;;;16.32;59.75;99887.13;7371833;19;20006;-67
2022/04/23 10:53:54;;;;;;;23.13;11.95;;;;;;;16.26;59.15;99890.63;7368651;19;20014;-64
2022/04/23 10:56:23;;;;;;;21.10;12.63;;;;;;;16.27;59.57;99886.94;7367862;19;20010;-66
2022/04/23 10:58:52;;;;;;;19.63;11.88;;;;;;;16.36;59.01;99888.31;7368482;19;20083;-69
2022/04/23 11:01:37;;;;;;;19.70;11.88;;;;;;;16.39;58.48;99871.16;7364046;19;20104;-67
2022/04/23 11:04:08;;;;;;;21.88;12.60;;;;;;;16.42;59.44;99890.13;7369364;19;20010;-65
2022/04/23 11:12:22;;;;;;;19.02;11.95;;;;;;;16.48;58.27;99891.09;7369661;19;20461;-67
2022/04/23 11:14:55;;;;;;;17.50;11.10;;;;;;;16.46;58.17;99886.00;7366615;19;20162;-65
2022/04/23 11:17:23;;;;;;;18.85;10.88;;;;;;;16.38;58.05;99883.63;7375637;19;20010;-65
2022/04/23 11:19:52;;;;;;;23.38;11.80;;;;;;;16.46;58.09;99901.94;7366760;19;20010;-65
2022/04/23 11:22:21;;;;;;;19.98;11.68;;;;;;;16.56;58.18;99880.22;7371887;19;20002;-67
2022/04/23 11:24:50;;;;;;;19.92;12.10;;;;;;;16.74;57.42;99888.31;7364833;19;20050;-65
2022/04/23 11:27:28;;;;;;;18.73;11.70;;;;;;;16.88;56.87;99873.06;7365109;19;20320;-66
2022/04/23 11:29:59;;;;;;;20.83;12.13;;;;;;;16.96;56.93;99881.59;7365146;19;20571;-64
2022/04/23 11:32:31;;;;;;;16.60;10.05;;;;;;;17.09;56.01;99873.50;7367036;19;20487;-65
2022/04/23 11:35:01;;;;;;;17.98;11.48;;;;;;;17.17;55.36;99856.44;7364017;19;20652;-66
2022/04/23 11:37:35;;;;;;;19.52;11.85;;;;;;;17.24;55.75;99870.47;7364410;19;20091;-65
2022/04/23 11:40:11;;;;;;;17.10;10.50;;;;;;;17.15;54.48;99877.13;7365298;19;20030;-64
2022/04/23 11:42:41;;;;;;;19.08;11.45;;;;;;;17.09;54.98;99886.78;7365780;19;20606;-67
2022/04/23 11:45:10;;;;;;;14.82;8.90;;;;;;;17.04;54.49;99873.34;7364106;19;20622;-66
2022/04/23 11:47:37;;;;;;;18.90;8.88;;;;;;;17.08;54.71;99869.19;7369785;19;20010;-65
2022/04/23 11:50:16;;;;;;;15.07;8.10;;;;;;;17.14;54.01;99880.81;7372683;19;20016;-65
2022/04/23 11:52:45;;;;;;;13.32;7.75;;;;;;;17.08;53.54;99869.19;7366963;19;20011;-65
2022/04/23 11:55:23;;;;;;;19.17;9.38;;;;;;;17.01;53.52;99867.66;7365153;19;20026;-63